Mercer, Missouri
Current Conditions -  °F | °C
As of 5:19 AM on Monday 22 Dec 2014 (Local Time) from KLWD Reporting Station
Overcast Overcast  
Wind Chill: 32°   Ceiling: 1500
Heat Index: 39°   Visibility: 10mi
Dew Point: 37°   Wind: 10mph
Humidity: 93%   Direction: 150°SSE
Pressure: 29.65"   Gusts: NA
Location:  40.51°N, 93.53°W
Report Text: KLWD 221119Z AUTO 15009KT 10SM OVC015 04/03 A2965 RMK AO2 T00390028
Loading
Personal Weather Stations






























Interactive Weather Map New forecast layout! Learn more

10-Day Weather Forecast

Advertisements
Track Severe Weather on mobile